createdAt,value
2023-02-11T00:04:01.113Z,2.31
2023-02-11T00:09:05.033Z,2.32
2023-02-11T00:14:08.433Z,2.34
2023-02-11T00:19:11.243Z,2.35
2023-02-11T00:24:14.047Z,2.37
2023-02-11T00:29:16.808Z,2.37
2023-02-11T00:34:19.538Z,2.39
2023-02-11T00:39:22.170Z,2.40
2023-02-11T00:44:25.214Z,2.41
2023-02-11T00:49:28.096Z,2.41
2023-02-11T00:54:30.824Z,2.43
2023-02-11T00:59:33.645Z,2.42
2023-02-11T01:04:36.358Z,2.43
2023-02-11T01:09:39.355Z,2.42
2023-02-11T01:14:42.351Z,2.40
2023-02-11T01:19:45.164Z,2.40
2023-02-11T01:24:47.872Z,2.38
2023-02-11T01:29:50.691Z,2.38
2023-02-11T01:34:53.429Z,2.38
2023-02-11T01:39:56.167Z,2.38
2023-02-11T01:45:02.127Z,2.39
2023-02-11T01:50:05.320Z,2.38
2023-02-11T01:55:31.613Z,2.37
2023-02-11T02:00:37.895Z,2.37
2023-02-11T02:06:06.140Z,2.37
2023-02-11T02:11:08.878Z,2.35
2023-02-11T02:16:17.964Z,2.35
2023-02-11T02:21:46.024Z,2.34
2023-02-11T02:27:10.645Z,2.32
2023-02-11T02:32:23.368Z,2.30
2023-02-11T02:37:51.746Z,2.27
2023-02-11T02:42:55.278Z,2.23
2023-02-11T02:47:58.145Z,2.21
2023-02-11T02:53:11.152Z,2.20
2023-02-11T02:58:43.120Z,2.20
2023-02-11T03:04:01.300Z,2.19
2023-02-11T03:09:19.349Z,2.17
2023-02-11T03:14:26.945Z,2.15
2023-02-11T03:19:34.983Z,2.15
2023-02-11T03:24:39.806Z,2.17
2023-02-11T03:29:49.502Z,2.16
2023-02-11T03:35:14.315Z,2.15
2023-02-11T03:40:26.743Z,2.16
2023-02-11T03:45:30.625Z,2.15
2023-02-11T03:50:36.378Z,2.17
2023-02-11T03:55:40.437Z,2.18
2023-02-11T04:00:44.542Z,2.19
2023-02-11T04:05:47.522Z,2.18
2023-02-11T04:10:50.367Z,2.16
2023-02-11T04:15:53.476Z,2.15
2023-02-11T04:20:56.618Z,2.15
2023-02-11T04:25:59.525Z,2.15
2023-02-11T04:31:02.496Z,2.16
2023-02-11T04:36:05.530Z,2.17
2023-02-11T04:41:08.342Z,2.16
2023-02-11T04:46:11.104Z,2.15
2023-02-11T04:51:14.121Z,2.13
2023-02-11T04:56:16.850Z,2.11
2023-02-11T05:01:19.768Z,2.11
2023-02-11T05:06:22.945Z,2.09
2023-02-11T05:11:26.454Z,2.05
2023-02-11T05:16:29.219Z,1.97
2023-02-11T05:21:32.077Z,1.90
2023-02-11T05:26:34.879Z,1.85
2023-02-11T05:31:37.716Z,1.81
2023-02-11T05:36:40.427Z,1.79
2023-02-11T05:41:43.182Z,1.76
2023-02-11T05:46:45.959Z,1.75
2023-02-11T05:51:48.790Z,1.74
2023-02-11T05:56:51.591Z,1.72
2023-02-11T06:01:54.332Z,1.70
2023-02-11T06:06:57.296Z,1.69
2023-02-11T06:12:00.321Z,1.68
2023-02-11T06:17:03.274Z,1.67
2023-02-11T06:22:05.984Z,1.67
2023-02-11T06:27:08.731Z,1.67
2023-02-11T06:32:28.144Z,1.68
2023-02-11T06:37:35.312Z,1.70
2023-02-11T06:42:39.397Z,1.71
2023-02-11T06:47:42.343Z,1.71
2023-02-11T06:52:45.051Z,1.72
2023-02-11T06:57:47.833Z,1.71
2023-02-11T07:02:50.516Z,1.70
2023-02-11T07:07:53.334Z,1.69
2023-02-11T07:12:58.696Z,1.70
2023-02-11T07:18:01.673Z,1.71
2023-02-11T07:23:05.117Z,1.71
2023-02-11T07:28:07.920Z,1.73
2023-02-11T07:33:11.129Z,1.73
2023-02-11T07:38:14.237Z,1.75
2023-02-11T07:43:16.929Z,1.76
2023-02-11T07:48:19.635Z,1.76
2023-02-11T07:53:22.326Z,1.75
2023-02-11T07:58:25.141Z,1.74
2023-02-11T08:03:28.099Z,1.71
2023-02-11T08:08:30.911Z,1.70
2023-02-11T08:13:34.152Z,1.70
2023-02-11T08:18:37.067Z,1.72
2023-02-11T08:23:41.441Z,1.73
2023-02-11T08:28:45.909Z,1.75
2023-02-11T08:33:49.043Z,1.76
2023-02-11T08:38:52.170Z,1.77
2023-02-11T08:43:55.087Z,1.79
2023-02-11T08:48:58.061Z,1.80
2023-02-11T08:54:01.092Z,1.83
2023-02-11T08:59:04.172Z,1.87
2023-02-11T09:04:07.406Z,1.91
2023-02-11T09:09:13.617Z,1.95
2023-02-11T09:14:20.088Z,2.01
2023-02-11T09:19:23.276Z,2.05
2023-02-11T09:24:26.002Z,2.07
2023-02-11T09:29:28.782Z,2.09
2023-02-11T09:34:31.563Z,2.11
2023-02-11T09:39:34.317Z,2.14
2023-02-11T09:44:38.930Z,2.17
2023-02-11T09:49:47.728Z,2.19
2023-02-11T09:54:59.610Z,2.20
2023-02-11T10:00:17.320Z,2.22
2023-02-11T10:05:25.685Z,2.25
2023-02-11T10:10:50.273Z,2.28
2023-02-11T10:16:27.127Z,2.33
2023-02-11T10:22:08.773Z,2.40
2023-02-11T10:27:21.991Z,2.48
2023-02-11T10:32:49.289Z,2.54
2023-02-11T10:37:51.992Z,2.59
2023-02-11T10:43:02.846Z,2.64
2023-02-11T10:48:26.364Z,2.67
2023-02-11T10:53:29.072Z,2.70
2023-02-11T10:58:41.971Z,2.72
2023-02-11T11:03:51.125Z,2.74
2023-02-11T11:08:53.812Z,2.74
2023-02-11T11:14:00.742Z,2.80
2023-02-11T11:19:06.218Z,2.87
2023-02-11T11:24:45.302Z,2.93
2023-02-11T11:29:51.824Z,2.96
2023-02-11T11:35:02.751Z,2.98
2023-02-11T11:40:10.776Z,3.03
2023-02-11T11:45:16.247Z,3.05
2023-02-11T11:50:40.334Z,3.08
2023-02-11T11:56:00.953Z,3.13
2023-02-11T12:01:36.181Z,3.17
2023-02-11T12:06:53.857Z,3.22
2023-02-11T12:12:15.393Z,3.25
2023-02-11T12:17:52.074Z,3.30
2023-02-11T12:23:05.230Z,3.30
2023-02-11T12:28:38.622Z,3.31
2023-02-11T12:34:15.260Z,3.33
2023-02-11T12:39:36.698Z,3.36
2023-02-11T12:45:04.473Z,3.39
2023-02-11T12:50:39.363Z,3.43
2023-02-11T12:55:47.364Z,3.50
2023-02-11T13:01:06.253Z,3.55
2023-02-11T13:06:17.859Z,3.59
2023-02-11T13:11:24.622Z,3.64
2023-02-11T13:16:33.428Z,3.69
2023-02-11T13:22:11.284Z,3.74
2023-02-11T13:27:38.210Z,3.82
2023-02-11T13:32:55.995Z,3.90
2023-02-11T13:38:05.182Z,4.00
2023-02-11T13:43:21.912Z,4.10
2023-02-11T13:48:26.235Z,4.19
2023-02-11T13:53:30.227Z,4.31
2023-02-11T13:58:32.855Z,4.42
2023-02-11T14:03:56.775Z,4.54
2023-02-11T14:09:14.640Z,4.66
2023-02-11T14:14:28.492Z,4.76
2023-02-11T14:19:33.562Z,4.84
2023-02-11T14:24:36.241Z,4.89
2023-02-11T14:29:44.098Z,4.94
2023-02-11T14:34:52.775Z,4.98
2023-02-11T14:40:02.988Z,4.99
2023-02-11T14:45:09.143Z,5.03
2023-02-11T14:50:19.336Z,5.07
2023-02-11T14:55:35.693Z,5.09
2023-02-11T15:01:09.011Z,5.12
2023-02-11T15:06:29.348Z,5.11
2023-02-11T15:11:39.454Z,5.11
2023-02-11T15:16:46.864Z,5.13
2023-02-11T15:21:51.122Z,5.16
2023-02-11T15:27:02.908Z,5.19
2023-02-11T15:32:15.669Z,5.24
2023-02-11T15:37:25.109Z,5.27
2023-02-11T15:42:35.834Z,5.27
2023-02-11T15:47:53.633Z,5.28
2023-02-11T15:53:00.630Z,5.29
2023-02-11T15:58:03.530Z,5.28
2023-02-11T16:03:06.573Z,5.27
2023-02-11T16:08:29.956Z,5.26
2023-02-11T16:13:35.300Z,5.26
2023-02-11T16:18:40.485Z,5.26
2023-02-11T16:23:49.723Z,5.27
2023-02-11T16:28:52.993Z,5.30
2023-02-11T16:33:55.718Z,5.30
2023-02-11T16:38:58.384Z,5.31
2023-02-11T16:44:01.425Z,5.30
2023-02-11T16:49:11.877Z,5.28
2023-02-11T16:54:16.550Z,5.26
2023-02-11T16:59:19.759Z,5.22
2023-02-11T17:04:30.320Z,5.17
2023-02-11T17:09:33.334Z,5.11
2023-02-11T17:14:36.006Z,5.09
2023-02-11T17:19:39.514Z,5.06
2023-02-11T17:24:42.191Z,5.03
2023-02-11T17:29:44.902Z,5.03
2023-02-11T17:34:47.564Z,5.02
2023-02-11T17:39:51.086Z,4.93
2023-02-11T17:44:53.808Z,4.81
2023-02-11T17:49:56.574Z,4.67
2023-02-11T17:54:59.279Z,4.53
2023-02-11T18:00:02.393Z,4.44
2023-02-11T18:05:06.833Z,4.34
2023-02-11T18:10:10.223Z,4.22
2023-02-11T18:15:13.133Z,4.15
2023-02-11T18:20:15.942Z,4.10
2023-02-11T18:25:18.948Z,4.00
2023-02-11T18:30:22.729Z,3.86
2023-02-11T18:35:25.682Z,3.72
2023-02-11T18:40:28.328Z,3.55
2023-02-11T18:45:31.401Z,3.45
2023-02-11T18:50:34.293Z,3.39
2023-02-11T18:55:42.221Z,3.36
2023-02-11T19:00:47.388Z,3.33
2023-02-11T19:05:50.356Z,3.27
2023-02-11T19:10:53.431Z,3.16
2023-02-11T19:15:56.285Z,3.08
2023-02-11T19:20:59.017Z,2.98
2023-02-11T19:26:04.568Z,2.90
2023-02-11T19:31:09.188Z,2.84
2023-02-11T19:36:16.446Z,2.75
2023-02-11T19:41:22.214Z,2.69
2023-02-11T19:46:27.772Z,2.62
2023-02-11T19:51:32.818Z,2.58
2023-02-11T19:56:35.531Z,2.53
2023-02-11T20:01:38.344Z,2.51
2023-02-11T20:06:41.314Z,2.49
2023-02-11T20:11:44.038Z,2.45
2023-02-11T20:16:49.730Z,2.41
2023-02-11T20:21:55.601Z,2.39
2023-02-11T20:26:58.424Z,2.40
2023-02-11T20:32:01.341Z,2.41
2023-02-11T20:37:05.175Z,2.35
2023-02-11T20:42:12.035Z,2.29
2023-02-11T20:47:14.659Z,2.24
2023-02-11T20:52:17.342Z,2.22
2023-02-11T20:57:20.032Z,2.17
2023-02-11T21:02:24.781Z,2.11
2023-02-11T21:07:29.558Z,2.12
2023-02-11T21:12:32.273Z,2.11
2023-02-11T21:17:35.166Z,2.11
2023-02-11T21:22:37.872Z,2.09
2023-02-11T21:27:40.660Z,2.08
2023-02-11T21:32:43.477Z,2.03
2023-02-11T21:37:46.163Z,1.95
2023-02-11T21:42:48.849Z,1.96
2023-02-11T21:47:52.180Z,2.02
2023-02-11T21:52:54.851Z,2.09
2023-02-11T21:57:57.544Z,2.17
2023-02-11T22:03:00.293Z,2.16
2023-02-11T22:08:03.419Z,2.11
2023-02-11T22:13:06.183Z,2.05
2023-02-11T22:18:08.857Z,1.99
2023-02-11T22:23:11.531Z,1.99
2023-02-11T22:28:14.330Z,2.01
2023-02-11T22:33:17.595Z,2.03
2023-02-11T22:38:20.233Z,2.02
2023-02-11T22:43:23.395Z,1.96
2023-02-11T22:48:26.288Z,1.89
2023-02-11T22:53:28.947Z,1.86
2023-02-11T22:58:32.082Z,1.89
2023-02-11T23:03:35.521Z,1.92
2023-02-11T23:08:40.672Z,1.95
2023-02-11T23:13:45.095Z,1.97
2023-02-11T23:18:49.212Z,1.95
2023-02-11T23:23:57.683Z,1.94
2023-02-11T23:29:00.790Z,1.91
2023-02-11T23:34:04.377Z,1.90
2023-02-11T23:39:07.116Z,1.90
2023-02-11T23:44:10.721Z,1.91
2023-02-11T23:49:15.658Z,1.87
2023-02-11T23:54:18.590Z,1.83
2023-02-11T23:59:21.326Z,1.82
